Terminal Aerodrome Forecast
Issued by NWS

Home | Current Version | Previous Version | Graphics & Text | Print | Product List | Glossary On
Versions: 1 2 3 4 5 6 7 8 9 10 11 12 13 14 15 16 17 18 19 20 21
836
FTUS43 KTOP 252320
TAFFOE
TAF
KFOE 252320Z 2600/2624 14012G20KT P6SM FEW250
     FM260100 12006KT P6SM BKN150
      TEMPO 2605/2609 4SM TSRA BKN020CB
     FM261200 36005KT P6SM BKN020
     FM261800 35008KT P6SM SCT025 BKN050=

USA.gov is the U.S. government's official web portal to all federal, state and local government web resources and services.